Time;durP1;ratioP1;P1;durP2;ratioP2;P2;SDS_P1;SDS_P2;PMS_P1;PMS_P2;Temp;Humidity;BMP_temperature;BMP_pressure;BME280_temperature;BME280_humidity;BME280_pressure;Samples;Min_cycle;Max_cycle;Signal;HPM_P1;HPM_P2
2023/11/24 00:02:06;;;;;;;1999.90;999.90;;;8.80;99.90;;;;;;4974626;28;20425;-71
2023/11/24 00:04:33;;;;;;;1999.90;999.90;;;8.80;99.90;;;;;;4972998;28;20283;-71
2023/11/24 00:06:59;;;;;;;1999.90;999.90;;;8.90;99.90;;;;;;4967331;28;20031;-71
2023/11/24 00:09:29;;;;;;;1999.90;999.90;;;8.90;99.90;;;;;;4976734;28;20043;-71
2023/11/24 00:11:55;;;;;;;1999.90;999.90;;;8.90;99.90;;;;;;4965141;28;20122;-72
2023/11/24 00:14:21;;;;;;;1999.90;999.90;;;9.00;99.90;;;;;;4969896;28;20020;-71
2023/11/24 00:16:50;;;;;;;1999.90;999.90;;;9.10;99.90;;;;;;4965370;28;20027;-71
2023/11/24 00:19:16;;;;;;;1999.90;999.90;;;9.10;99.90;;;;;;4966994;28;20031;-72
2023/11/24 00:21:42;;;;;;;1999.90;999.90;;;9.20;99.90;;;;;;4971618;28;20031;-71
2023/11/24 00:24:08;;;;;;;1999.90;999.90;;;9.10;99.90;;;;;;4972995;28;20054;-70
2023/11/24 00:26:34;;;;;;;1999.90;999.90;;;9.20;99.90;;;;;;4960840;28;20104;-71
2023/11/24 00:29:00;;;;;;;1999.90;999.90;;;9.10;99.90;;;;;;4966258;28;20031;-71
2023/11/24 00:31:27;;;;;;;1999.90;999.90;;;9.10;99.90;;;;;;4970707;28;20019;-71
2023/11/24 00:33:54;;;;;;;1999.90;999.90;;;9.20;99.90;;;;;;4967205;28;20028;-71
2023/11/24 00:36:20;;;;;;;1999.90;999.90;;;9.10;99.90;;;;;;4963758;28;20019;-71
2023/11/24 00:38:49;;;;;;;1999.90;999.90;;;9.10;99.90;;;;;;4973663;28;20441;-71
2023/11/24 00:41:19;;;;;;;1999.90;999.90;;;9.10;99.90;;;;;;4967330;28;20058;-70
2023/11/24 00:43:46;;;;;;;1999.90;999.90;;;9.00;99.90;;;;;;4967043;28;20026;-71
2023/11/24 00:46:13;;;;;;;1999.90;999.90;;;9.00;99.90;;;;;;4965742;28;20034;-71
2023/11/24 00:48:39;;;;;;;1999.90;999.90;;;8.90;99.90;;;;;;4962089;28;20035;-71
2023/11/24 00:51:06;;;;;;;1999.90;999.90;;;8.80;99.90;;;;;;4962884;28;20035;-71
2023/11/24 00:53:33;;;;;;;1999.90;999.90;;;8.80;99.90;;;;;;4970077;28;20019;-70
2023/11/24 00:56:00;;;;;;;1999.90;999.90;;;8.80;99.90;;;;;;4964626;28;20019;-70
2023/11/24 00:58:29;;;;;;;1999.90;999.90;;;8.80;99.90;;;;;;4963266;28;20355;-71
2023/11/24 01:00:55;;;;;;;1999.90;999.90;;;8.70;99.90;;;;;;4973389;28;20050;-71
2023/11/24 01:03:21;;;;;;;1999.90;999.90;;;8.70;99.90;;;;;;4959092;28;20020;-71
2023/11/24 01:05:52;;;;;;;1999.90;999.90;;;8.70;99.90;;;;;;4967256;28;20022;-71
2023/11/24 01:08:18;;;;;;;1999.90;999.90;;;8.60;99.90;;;;;;4960171;28;20073;-71
2023/11/24 01:10:44;;;;;;;1999.90;999.90;;;8.60;99.90;;;;;;4963828;28;20039;-71
2023/11/24 01:13:10;;;;;;;1999.90;999.90;;;8.60;99.90;;;;;;4973141;28;20037;-71
2023/11/24 01:15:37;;;;;;;1999.90;999.90;;;8.60;99.90;;;;;;4973823;28;20019;-71
2023/11/24 01:18:03;;;;;;;1999.90;999.90;;;8.70;99.90;;;;;;4968524;28;20019;-71
2023/11/24 01:20:29;;;;;;;1999.90;999.90;;;8.60;99.90;;;;;;4973695;28;20034;-71
2023/11/24 01:22:54;;;;;;;1999.90;999.90;;;8.80;99.90;;;;;;4964063;28;20085;-71
2023/11/24 01:25:21;;;;;;;1999.90;999.90;;;8.90;99.90;;;;;;4972660;28;20034;-71
2023/11/24 01:27:47;;;;;;;1999.90;999.90;;;8.90;99.90;;;;;;4965160;28;20102;-71
2023/11/24 01:30:15;;;;;;;1999.90;999.90;;;8.80;99.90;;;;;;4971315;28;20063;-70
2023/11/24 01:32:41;;;;;;;1999.90;999.90;;;8.80;99.90;;;;;;4972392;28;20026;-71
2023/11/24 01:35:07;;;;;;;1999.90;999.90;;;8.70;99.90;;;;;;4954851;28;20028;-70
2023/11/24 01:37:33;;;;;;;1999.90;999.90;;;8.60;99.90;;;;;;4957455;28;20024;-71
2023/11/24 01:39:59;;;;;;;1999.90;999.90;;;8.60;99.90;;;;;;4969145;28;20070;-71
2023/11/24 01:42:25;;;;;;;1999.90;999.90;;;8.50;99.90;;;;;;4973361;28;20321;-71
2023/11/24 01:44:51;;;;;;;1999.90;999.90;;;8.50;99.90;;;;;;4973272;28;20444;-71
2023/11/24 01:47:17;;;;;;;1999.90;999.90;;;8.50;99.90;;;;;;4971824;28;20031;-71
2023/11/24 01:49:45;;;;;;;1999.90;999.90;;;8.50;99.90;;;;;;4973016;28;20145;-71
2023/11/24 01:52:12;;;;;;;1999.90;999.90;;;8.60;99.90;;;;;;4972921;28;20261;-70
2023/11/24 01:54:39;;;;;;;1999.90;999.90;;;8.60;99.90;;;;;;4971383;28;20079;-71
2023/11/24 01:57:11;;;;;;;1999.90;999.90;;;8.60;99.90;;;;;;4967453;28;20031;-71
2023/11/24 01:59:38;;;;;;;1999.90;999.90;;;8.60;99.90;;;;;;4968136;28;20031;-71
2023/11/24 02:02:03;;;;;;;;;;;8.50;99.90;;;;;;4973188;28;20122;-71
2023/11/24 02:04:30;;;;;;;1999.90;999.90;;;8.50;99.90;;;;;;4972744;28;20391;-71
2023/11/24 02:06:57;;;;;;;1999.90;999.90;;;8.50;99.90;;;;;;4961437;28;20441;-71
2023/11/24 02:09:24;;;;;;;1999.90;999.90;;;8.40;99.90;;;;;;4962284;28;20089;-70
2023/11/24 02:11:50;;;;;;;1999.90;999.90;;;8.30;99.90;;;;;;4972664;28;20038;-70
2023/11/24 02:14:16;;;;;;;1999.90;999.90;;;8.40;99.90;;;;;;4971765;28;20019;-71
2023/11/24 02:16:42;;;;;;;1999.90;999.90;;;8.40;99.90;;;;;;4964815;28;20035;-71
2023/11/24 02:19:08;;;;;;;1999.90;999.90;;;8.40;99.90;;;;;;4967255;28;20524;-71
2023/11/24 02:21:35;;;;;;;1999.90;999.90;;;8.30;99.90;;;;;;4972252;28;20355;-71
2023/11/24 02:24:00;;;;;;;1999.90;999.90;;;8.30;99.90;;;;;;4972714;28;20169;-71
2023/11/24 02:26:26;;;;;;;1999.90;999.90;;;8.30;99.90;;;;;;4959995;28;20102;-71
2023/11/24 02:28:53;;;;;;;1999.90;999.90;;;8.30;99.90;;;;;;4972419;28;20031;-71
2023/11/24 02:31:19;;;;;;;1999.90;999.90;;;8.30;99.90;;;;;;4972640;28;20192;-71
2023/11/24 02:33:48;;;;;;;1999.90;999.90;;;8.30;99.90;;;;;;4971784;28;20318;-69
2023/11/24 02:36:20;;;;;;;1999.90;999.90;;;8.30;99.90;;;;;;4971079;28;20045;-71
2023/11/24 02:38:49;;;;;;;1999.90;999.90;;;8.30;99.90;;;;;;4971681;28;20051;-70
2023/11/24 02:41:16;;;;;;;1999.90;999.90;;;8.40;99.90;;;;;;4970726;28;20031;-71
2023/11/24 02:43:42;;;;;;;1999.90;999.90;;;8.40;99.90;;;;;;4971705;28;20042;-70
2023/11/24 02:46:15;;;;;;;1999.90;999.90;;;8.50;99.90;;;;;;4962439;28;20078;-70
2023/11/24 02:48:42;;;;;;;1999.90;999.90;;;8.20;99.90;;;;;;4967528;28;20022;-71
2023/11/24 02:51:08;;;;;;;1999.90;999.90;;;8.20;99.90;;;;;;4960560;28;20023;-70
2023/11/24 02:53:36;;;;;;;1999.90;999.90;;;8.10;99.90;;;;;;4966863;28;20031;-70
2023/11/24 02:56:03;;;;;;;1999.90;999.90;;;8.10;99.90;;;;;;4959951;28;20419;-70
2023/11/24 02:58:29;;;;;;;;;;;8.10;99.90;;;;;;4966830;28;20345;-70
2023/11/24 03:00:58;;;;;;;1999.90;999.90;;;8.10;99.90;;;;;;4971259;28;19910;-71
2023/11/24 03:03:26;;;;;;;1999.90;999.90;;;8.10;99.90;;;;;;4967490;28;20039;-71
2023/11/24 03:05:52;;;;;;;1999.90;999.90;;;8.10;99.90;;;;;;4968222;28;20314;-71
2023/11/24 03:08:19;;;;;;;1999.90;999.90;;;8.00;99.90;;;;;;4972051;28;20023;-70
2023/11/24 03:10:45;;;;;;;1999.90;999.90;;;7.90;99.90;;;;;;4971615;28;20368;-71
2023/11/24 03:13:11;;;;;;;1999.90;999.90;;;7.80;99.90;;;;;;4972175;28;20027;-71
2023/11/24 03:15:37;;;;;;;1999.90;999.90;;;7.70;99.90;;;;;;4964488;28;20043;-71
2023/11/24 03:18:03;;;;;;;1999.90;999.90;;;7.60;99.90;;;;;;4969860;28;20023;-71
2023/11/24 03:20:29;;;;;;;1999.90;999.90;;;7.60;99.90;;;;;;4965072;28;20448;-71
2023/11/24 03:22:55;;;;;;;1999.90;999.90;;;7.60;99.90;;;;;;4958487;28;20035;-70
2023/11/24 03:25:21;;;;;;;1999.90;999.90;;;7.60;99.90;;;;;;4960866;28;20405;-70
2023/11/24 03:27:48;;;;;;;1999.90;999.90;;;7.80;99.90;;;;;;4964575;28;20035;-71
2023/11/24 03:30:14;;;;;;;1999.90;999.90;;;7.80;99.90;;;;;;4971759;28;20059;-71
2023/11/24 03:32:40;;;;;;;1999.90;999.90;;;7.90;99.90;;;;;;4971962;28;20019;-71
2023/11/24 03:35:07;;;;;;;1999.90;999.90;;;7.90;99.90;;;;;;4969612;28;20068;-71
2023/11/24 03:37:33;;;;;;;1999.90;999.90;;;7.90;99.90;;;;;;4961763;28;20051;-71
2023/11/24 03:39:59;;;;;;;1999.90;999.90;;;7.80;99.90;;;;;;4971044;28;20062;-70
2023/11/24 03:42:25;;;;;;;1999.90;999.90;;;7.80;99.90;;;;;;4971819;28;20031;-71
2023/11/24 03:44:51;;;;;;;1999.90;999.90;;;7.70;99.90;;;;;;4969113;28;20355;-71
2023/11/24 03:47:17;;;;;;;1999.90;999.90;;;7.60;99.90;;;;;;4967384;28;20024;-71
2023/11/24 03:49:43;;;;;;;1999.90;999.90;;;7.50;99.90;;;;;;4967458;28;20061;-71
2023/11/24 03:52:09;;;;;;;1999.90;999.90;;;7.40;99.90;;;;;;4968899;28;20402;-72
2023/11/24 03:54:34;;;;;;;1999.90;999.90;;;7.40;99.90;;;;;;4969603;28;20083;-71
2023/11/24 03:57:00;;;;;;;1999.90;999.90;;;7.40;99.90;;;;;;4971789;28;20027;-71
2023/11/24 03:59:26;;;;;;;1999.90;999.90;;;7.50;99.90;;;;;;4975041;28;20098;-71
2023/11/24 04:01:52;;;;;;;1999.90;999.90;;;7.50;99.90;;;;;;4973474;28;20034;-71
2023/11/24 04:04:17;;;;;;;1999.90;999.90;;;7.50;99.90;;;;;;4967089;28;20030;-70
2023/11/24 04:06:43;;;;;;;1999.90;999.90;;;7.40;99.90;;;;;;4970284;28;20035;-71
2023/11/24 04:09:10;;;;;;;1999.90;999.90;;;7.20;99.90;;;;;;4973741;28;20452;-70
2023/11/24 04:11:36;;;;;;;1999.90;999.90;;;7.00;99.90;;;;;;4974792;28;20102;-71
2023/11/24 04:14:02;;;;;;;1999.90;999.90;;;6.80;99.90;;;;;;4960830;28;20609;-71
2023/11/24 04:16:29;;;;;;;1999.90;999.90;;;6.80;99.90;;;;;;4963129;28;20114;-70
2023/11/24 04:18:55;;;;;;;1999.90;999.90;;;6.80;99.90;;;;;;4970464;28;20031;-71
2023/11/24 04:21:22;;;;;;;1999.90;999.90;;;6.80;99.90;;;;;;4974255;28;20030;-71
2023/11/24 04:23:48;;;;;;;1999.90;999.90;;;6.70;99.90;;;;;;4974391;28;20031;-70
2023/11/24 04:26:14;;;;;;;1999.90;999.90;;;6.70;99.90;;;;;;4972304;28;20030;-71
2023/11/24 04:28:39;;;;;;;1999.90;999.90;;;6.80;99.90;;;;;;4967810;28;20042;-71
2023/11/24 04:31:05;;;;;;;1999.90;999.90;;;6.80;99.90;;;;;;4974433;28;20371;-72
2023/11/24 04:33:31;;;;;;;1999.90;999.90;;;6.80;99.90;;;;;;4970195;28;20019;-72
2023/11/24 04:35:57;;;;;;;1999.90;999.90;;;6.90;99.90;;;;;;4973844;28;20459;-71
2023/11/24 04:38:24;;;;;;;1999.90;999.90;;;6.90;99.90;;;;;;4972706;28;20076;-71
2023/11/24 04:40:51;;;;;;;1999.90;999.90;;;7.00;99.90;;;;;;4973156;28;20053;-71
2023/11/24 04:43:18;;;;;;;1999.90;999.90;;;6.90;99.90;;;;;;4973143;28;20106;-71
2023/11/24 04:45:44;;;;;;;1999.90;999.90;;;7.00;99.90;;;;;;4972824;28;20041;-71
2023/11/24 04:48:12;;;;;;;1999.90;999.90;;;6.90;99.90;;;;;;4971582;28;20038;-71
2023/11/24 04:50:38;;;;;;;1999.90;999.90;;;7.00;99.90;;;;;;4970959;28;20080;-71
2023/11/24 04:53:04;;;;;;;1999.90;999.90;;;7.00;99.90;;;;;;4967834;28;20027;-70
2023/11/24 04:55:30;;;;;;;1999.90;999.90;;;7.00;99.90;;;;;;4957204;28;20299;-70
2023/11/24 04:57:56;;;;;;;1999.90;999.90;;;7.00;99.90;;;;;;4957952;28;20085;-70
2023/11/24 05:00:22;;;;;;;1999.90;999.90;;;6.90;99.90;;;;;;4968036;28;20106;-71
2023/11/24 05:02:49;;;;;;;1999.90;999.90;;;7.00;99.90;;;;;;4958009;28;20023;-70
2023/11/24 05:05:17;;;;;;;1999.90;999.90;;;7.00;99.90;;;;;;4959469;28;20054;-70
2023/11/24 05:07:43;;;;;;;1999.90;999.90;;;6.90;99.90;;;;;;4964528;28;20096;-70
2023/11/24 05:10:09;;;;;;;1999.90;999.90;;;6.90;99.90;;;;;;4973967;28;20426;-70
2023/11/24 05:12:35;;;;;;;1999.90;999.90;;;6.80;99.90;;;;;;4973262;28;20100;-70
2023/11/24 05:15:08;;;;;;;1999.90;999.90;;;6.80;99.90;;;;;;4969905;28;20029;-70
2023/11/24 05:17:35;;;;;;;1999.90;999.90;;;6.80;99.90;;;;;;4973265;28;20034;-70
2023/11/24 05:20:01;;;;;;;1999.90;999.90;;;6.80;99.90;;;;;;4966209;28;20329;-70
2023/11/24 05:22:27;;;;;;;1999.90;999.90;;;6.90;99.90;;;;;;4969312;28;20058;-71
2023/11/24 05:24:53;;;;;;;1999.90;999.90;;;6.90;99.90;;;;;;4971813;28;20374;-70
2023/11/24 05:27:18;;;;;;;1999.90;999.90;;;7.00;99.90;;;;;;4969683;28;20192;-69
2023/11/24 05:29:44;;;;;;;1999.90;999.90;;;7.00;99.90;;;;;;4969797;28;20337;-71
2023/11/24 05:32:11;;;;;;;1999.90;999.90;;;7.00;99.90;;;;;;4990670;28;20031;-70
2023/11/24 05:34:37;;;;;;;1999.90;999.90;;;7.00;99.90;;;;;;4959557;28;20030;-70
2023/11/24 05:37:06;;;;;;;1999.90;999.90;;;6.90;99.90;;;;;;4973044;28;20036;-70
2023/11/24 05:39:34;;;;;;;1999.90;999.90;;;6.90;99.90;;;;;;4973250;28;20380;-70
2023/11/24 05:42:01;;;;;;;1999.90;999.90;;;6.90;99.90;;;;;;4972824;28;20019;-70
2023/11/24 05:44:26;;;;;;;1999.90;999.90;;;6.90;99.90;;;;;;4973287;28;20025;-70
2023/11/24 05:46:52;;;;;;;1999.90;999.90;;;7.00;99.90;;;;;;4959282;28;20106;-70
2023/11/24 05:49:18;;;;;;;1999.90;999.90;;;7.10;99.90;;;;;;4967836;28;20291;-69
2023/11/24 05:51:44;;;;;;;1999.90;999.90;;;7.20;99.90;;;;;;4968591;28;20031;-70
2023/11/24 05:54:12;;;;;;;1999.90;999.90;;;7.20;99.90;;;;;;4968498;28;20021;-70
2023/11/24 05:56:39;;;;;;;1999.90;999.90;;;7.10;99.90;;;;;;4973068;28;20072;-70
2023/11/24 05:59:05;;;;;;;1999.90;999.90;;;7.10;99.90;;;;;;4995029;28;20031;-69
2023/11/24 06:01:31;;;;;;;1999.90;999.90;;;7.10;99.90;;;;;;4973164;28;20038;-69
2023/11/24 06:03:57;;;;;;;1999.90;999.90;;;7.10;99.90;;;;;;5018218;28;20027;-70
2023/11/24 06:06:23;;;;;;;1999.90;999.90;;;7.00;99.90;;;;;;4965641;28;20042;-70
2023/11/24 06:08:49;;;;;;;1999.90;999.90;;;6.80;99.90;;;;;;4969222;28;20142;-70
2023/11/24 06:11:17;;;;;;;1999.90;999.90;;;6.70;99.90;;;;;;4962983;28;20039;-70
2023/11/24 06:13:45;;;;;;;1999.90;999.90;;;6.60;99.90;;;;;;4963977;28;20023;-70
2023/11/24 06:16:11;;;;;;;1999.90;999.90;;;6.50;99.90;;;;;;4963892;28;20034;-69
2023/11/24 06:19:02;;;;;;;1999.90;999.90;;;6.50;99.90;;;;;;4786705;28;20587;-70
2023/11/24 06:25:06;;;;;;;1999.90;999.90;;;6.50;99.90;;;;;;5145072;23;20077;-70
2023/11/24 06:27:32;;;;;;;1999.90;999.90;;;6.50;99.90;;;;;;4982988;28;20083;-70
2023/11/24 06:29:58;;;;;;;1999.90;999.90;;;6.50;99.90;;;;;;4974774;28;20026;-70
2023/11/24 06:32:24;;;;;;;1999.90;999.90;;;6.40;99.90;;;;;;4993300;28;20022;-71
2023/11/24 06:34:50;;;;;;;1999.90;999.90;;;6.30;99.90;;;;;;4996320;28;20381;-70
2023/11/24 06:37:16;;;;;;;1999.90;999.90;;;6.30;99.90;;;;;;5040100;28;20264;-70
2023/11/24 06:39:42;;;;;;;1999.90;999.90;;;6.40;99.90;;;;;;5014918;28;20024;-69
2023/11/24 06:42:08;;;;;;;1999.90;999.90;;;6.30;99.90;;;;;;4992963;28;20030;-70
2023/11/24 06:44:34;;;;;;;1999.90;999.90;;;6.30;99.90;;;;;;4992168;28;20038;-71
2023/11/24 06:47:01;;;;;;;1999.90;999.90;;;6.30;99.90;;;;;;4993225;28;20027;-70
2023/11/24 06:49:29;;;;;;;1999.90;999.90;;;6.20;99.90;;;;;;4991759;28;20417;-70
2023/11/24 06:51:55;;;;;;;1999.90;999.90;;;6.20;99.90;;;;;;5042176;28;20030;-70
2023/11/24 06:54:21;;;;;;;1999.90;999.90;;;6.40;99.90;;;;;;4993259;28;20413;-70
2023/11/24 06:56:47;;;;;;;1999.90;999.90;;;6.40;99.90;;;;;;5008777;28;20036;-71
2023/11/24 06:59:12;;;;;;;1999.90;999.90;;;6.40;99.90;;;;;;4991611;28;20079;-70
2023/11/24 07:01:38;;;;;;;1999.90;999.90;;;6.40;99.90;;;;;;5008864;28;20032;-70
2023/11/24 07:04:04;;;;;;;1999.90;999.90;;;6.40;99.90;;;;;;4995391;28;20034;-72
2023/11/24 07:06:30;;;;;;;1999.90;999.90;;;6.50;99.90;;;;;;4996975;28;20037;-69
2023/11/24 07:08:56;;;;;;;1999.90;999.90;;;6.40;99.90;;;;;;4990411;28;20034;-70
2023/11/24 07:11:23;;;;;;;1999.90;999.90;;;6.30;99.90;;;;;;5021883;28;20028;-69
2023/11/24 07:13:49;;;;;;;1999.90;999.90;;;6.20;99.90;;;;;;5000686;28;20752;-70
2023/11/24 07:16:16;;;;;;;1999.90;999.90;;;6.10;99.90;;;;;;4992511;28;20105;-70
2023/11/24 07:18:42;;;;;;;1999.90;999.90;;;6.10;99.90;;;;;;5001935;28;20431;-69
2023/11/24 07:21:08;;;;;;;1999.90;999.90;;;6.10;99.90;;;;;;4991113;28;20031;-70
2023/11/24 07:23:37;;;;;;;1999.90;999.90;;;6.00;99.90;;;;;;4991681;28;20332;-70
2023/11/24 07:26:04;;;;;;;1999.90;999.90;;;6.00;99.90;;;;;;4993999;28;20133;-70
2023/11/24 07:28:30;;;;;;;1999.90;999.90;;;5.90;99.90;;;;;;5000747;28;20015;-70
2023/11/24 07:30:56;;;;;;;1999.90;999.90;;;5.90;99.90;;;;;;4995165;28;20033;-70
2023/11/24 07:33:22;;;;;;;1999.90;999.90;;;5.90;99.90;;;;;;4995473;28;20039;-71
2023/11/24 07:35:48;;;;;;;1999.90;999.90;;;5.90;99.90;;;;;;4995388;28;20315;-71
2023/11/24 07:38:14;;;;;;;1999.90;999.90;;;6.00;99.90;;;;;;4997873;28;20023;-71
2023/11/24 07:40:40;;;;;;;1999.90;999.90;;;6.10;99.90;;;;;;4995503;28;20041;-71
2023/11/24 07:43:06;;;;;;;1999.90;999.90;;;6.00;99.90;;;;;;4995820;28;20030;-70
2023/11/24 07:45:32;;;;;;;1999.90;999.90;;;5.90;99.90;;;;;;4994505;28;20050;-70
2023/11/24 07:47:58;;;;;;;1999.90;999.90;;;5.80;99.90;;;;;;4993008;28;20025;-70
2023/11/24 07:50:24;;;;;;;1999.90;999.90;;;5.70;99.90;;;;;;4976189;28;20064;-70
2023/11/24 07:52:50;;;;;;;1999.90;999.90;;;5.70;99.90;;;;;;4994519;28;20026;-70
2023/11/24 07:55:16;;;;;;;1999.90;999.90;;;5.70;99.90;;;;;;4977211;28;20256;-70
2023/11/24 07:57:42;;;;;;;1999.90;999.90;;;5.90;99.90;;;;;;4993683;28;20080;-70
2023/11/24 08:00:12;;;;;;;1999.90;999.90;;;5.90;99.90;;;;;;5007557;28;20026;-70
2023/11/24 08:02:40;;;;;;;1999.90;999.90;;;6.00;99.90;;;;;;4995202;28;20026;-71
2023/11/24 08:05:08;;;;;;;1999.90;999.90;;;5.90;99.90;;;;;;5003885;28;20358;-70
2023/11/24 08:07:33;;;;;;;1999.90;999.90;;;5.80;99.90;;;;;;4993056;28;20026;-69
2023/11/24 08:09:59;;;;;;;1999.90;999.90;;;5.70;99.90;;;;;;4993978;28;20309;-70
2023/11/24 08:12:25;;;;;;;1999.90;999.90;;;5.70;99.90;;;;;;4976799;28;20072;-70
2023/11/24 08:14:51;;;;;;;1999.90;999.90;;;5.70;99.90;;;;;;4983098;28;20106;-69
2023/11/24 08:17:17;;;;;;;1999.90;999.90;;;5.70;99.90;;;;;;4997013;28;20022;-70
2023/11/24 08:19:43;;;;;;;1999.90;999.90;;;5.60;99.90;;;;;;5016716;28;20034;-70
2023/11/24 08:22:08;;;;;;;1999.90;999.90;;;5.60;99.90;;;;;;5019950;28;20092;-70
2023/11/24 08:24:35;;;;;;;1999.90;999.90;;;5.70;99.90;;;;;;5008098;28;20034;-70
2023/11/24 08:27:02;;;;;;;1999.90;999.90;;;5.80;99.90;;;;;;4993441;28;20037;-71
2023/11/24 08:29:28;;;;;;;1999.90;999.90;;;5.80;99.90;;;;;;5026275;28;20036;-71
2023/11/24 08:31:54;;;;;;;1999.90;999.90;;;5.80;99.90;;;;;;4997962;28;20026;-70
2023/11/24 08:34:20;;;;;;;1999.90;999.90;;;5.60;99.90;;;;;;4999689;28;20026;-70
2023/11/24 08:36:46;;;;;;;1999.90;999.90;;;5.50;99.90;;;;;;5006936;28;20482;-70
2023/11/24 08:39:15;;;;;;;1999.90;999.90;;;5.40;99.90;;;;;;5032216;28;20138;-70
2023/11/24 08:41:45;;;;;;;1999.90;999.90;;;5.30;99.90;;;;;;5021112;28;20024;-70
2023/11/24 08:44:14;;;;;;;1999.90;999.90;;;5.20;99.90;;;;;;4993488;28;20036;-71
2023/11/24 08:46:42;;;;;;;1999.90;999.90;;;5.20;99.90;;;;;;4990177;28;20041;-71
2023/11/24 08:49:08;;;;;;;1999.90;999.90;;;5.30;99.90;;;;;;4993429;28;20321;-70
2023/11/24 08:51:34;;;;;;;;;;;5.30;99.90;;;;;;5006544;28;20363;-70
2023/11/24 08:54:00;;;;;;;1999.90;999.90;;;5.40;99.90;;;;;;4975637;28;19963;-70
2023/11/24 08:56:30;;;;;;;1999.90;999.90;;;5.50;99.90;;;;;;4996479;28;20022;-70
2023/11/24 08:58:56;;;;;;;1999.90;999.90;;;5.70;99.90;;;;;;4991489;28;20448;-70
2023/11/24 09:01:23;;;;;;;1999.90;999.90;;;5.80;99.90;;;;;;4972899;28;20035;-70
2023/11/24 09:03:49;;;;;;;1999.90;999.90;;;6.00;99.90;;;;;;5002017;28;20278;-71
2023/11/24 09:06:15;;;;;;;1999.90;999.90;;;6.10;99.90;;;;;;4993024;28;20090;-70
2023/11/24 09:08:41;;;;;;;1999.90;999.90;;;6.10;99.90;;;;;;4992537;28;20439;-71
2023/11/24 09:11:07;;;;;;;1999.90;999.90;;;6.10;99.90;;;;;;4989620;28;20030;-70
2023/11/24 09:13:34;;;;;;;1999.90;999.90;;;6.20;99.90;;;;;;4977721;28;20033;-71
2023/11/24 09:16:02;;;;;;;1999.90;999.90;;;6.30;99.90;;;;;;4990094;28;20275;-71
2023/11/24 09:18:28;;;;;;;1999.90;999.90;;;6.30;99.90;;;;;;4990257;28;20022;-71
2023/11/24 09:20:57;;;;;;;1999.90;999.90;;;6.30;99.90;;;;;;4992148;28;20084;-72
2023/11/24 09:23:23;;;;;;;1999.90;999.90;;;6.20;99.90;;;;;;4977647;28;20440;-72
2023/11/24 09:25:49;;;;;;;1999.90;999.90;;;6.10;99.90;;;;;;4988908;28;20058;-71
2023/11/24 09:28:16;;;;;;;1999.90;999.90;;;5.70;99.90;;;;;;4988944;28;20041;-70
2023/11/24 09:30:42;;;;;;;1999.90;999.90;;;5.60;99.90;;;;;;4990364;28;20052;-71
2023/11/24 09:33:09;;;;;;;1999.90;999.90;;;5.60;99.90;;;;;;4989989;28;20096;-69
2023/11/24 09:35:35;;;;;;;1999.90;999.90;;;5.60;99.90;;;;;;4993233;28;20099;-71
2023/11/24 09:38:01;;;;;;;1999.90;999.90;;;5.60;99.90;;;;;;4993750;28;20412;-71
2023/11/24 09:40:27;;;;;;;1999.90;999.90;;;5.70;99.90;;;;;;5033140;28;20026;-71
2023/11/24 09:42:53;;;;;;;1999.90;999.90;;;5.70;99.90;;;;;;5000097;28;20038;-70
2023/11/24 09:45:22;;;;;;;1999.90;999.90;;;5.70;99.90;;;;;;4998221;28;20040;-71
2023/11/24 09:47:49;;;;;;;1999.90;999.90;;;5.80;99.90;;;;;;5031497;28;20126;-70
2023/11/24 09:50:26;;;;;;;1999.90;999.90;;;6.00;99.90;;;;;;4991707;28;20030;-71
2023/11/24 09:52:55;;;;;;;;;;;6.10;99.90;;;;;;4993516;28;20318;-71
2023/11/24 09:55:23;;;;;;;1999.90;999.90;;;6.30;99.90;;;;;;4992984;28;19941;-70
2023/11/24 09:57:52;;;;;;;1999.90;999.90;;;6.40;99.90;;;;;;4992319;28;20483;-71
2023/11/24 10:00:23;;;;;;;1999.90;999.90;;;6.70;99.90;;;;;;4992489;28;20029;-71
2023/11/24 10:02:53;;;;;;;1999.90;999.90;;;6.70;99.90;;;;;;4989514;28;20383;-70
2023/11/24 10:05:20;;;;;;;1999.90;999.90;;;6.50;99.90;;;;;;5028723;28;20028;-70
2023/11/24 10:07:53;;;;;;;1999.90;999.90;;;6.50;99.90;;;;;;4990239;28;20030;-71
2023/11/24 10:10:25;;;;;;;1999.90;999.90;;;6.20;99.90;;;;;;4994891;28;20407;-71
2023/11/24 10:13:01;;;;;;;1999.90;999.90;;;6.10;99.90;;;;;;4994345;28;20022;-71
2023/11/24 10:15:28;;;;;;;1999.90;999.90;;;6.10;99.90;;;;;;4986312;28;20019;-71
2023/11/24 10:17:54;;;;;;;1999.90;999.90;;;6.10;99.90;;;;;;4991505;28;20053;-71
2023/11/24 10:20:27;;;;;;;1999.90;999.90;;;6.00;99.90;;;;;;4995710;28;20031;-71
2023/11/24 10:22:55;;;;;;;1999.90;999.90;;;6.00;99.90;;;;;;4975948;28;20272;-71
2023/11/24 10:25:33;;;;;;;1999.90;999.90;;;6.20;99.90;;;;;;4990650;28;20073;-71
2023/11/24 10:28:08;;;;;;;1999.90;999.90;;;6.50;99.90;;;;;;4991409;28;20038;-69
2023/11/24 10:30:34;;;;;;;1999.90;999.90;;;6.80;99.90;;;;;;4991836;28;20074;-71
2023/11/24 10:33:05;;;;;;;1999.90;999.90;;;6.60;99.90;;;;;;4990737;28;20381;-71
2023/11/24 10:35:31;;;;;;;1999.90;999.90;;;6.20;99.90;;;;;;4991598;28;20014;-72
2023/11/24 10:37:58;;;;;;;1999.90;999.90;;;6.00;99.90;;;;;;4994741;28;20029;-71
2023/11/24 10:40:25;;;;;;;1999.90;999.90;;;6.00;99.90;;;;;;4994702;28;20267;-72
2023/11/24 10:42:53;;;;;;;1999.90;999.90;;;6.10;99.90;;;;;;5009085;28;20026;-71
2023/11/24 10:45:22;;;;;;;1999.90;999.90;;;6.10;99.90;;;;;;4989174;28;20087;-70
2023/11/24 10:48:06;;;;;;;1999.90;999.90;;;6.10;99.90;;;;;;4990799;28;20072;-71
2023/11/24 10:50:41;;;;;;;1999.90;999.90;;;6.10;99.90;;;;;;4987196;28;20023;-71
2023/11/24 10:53:26;;;;;;;1999.90;999.90;;;6.20;99.90;;;;;;5039088;28;20024;-71
2023/11/24 10:55:54;;;;;;;1999.90;999.90;;;6.20;99.90;;;;;;4995824;28;20109;-71
2023/11/24 10:58:22;;;;;;;1999.90;999.90;;;6.20;99.90;;;;;;4997315;28;20101;-72
2023/11/24 11:00:49;;;;;;;1999.90;999.90;;;6.50;99.90;;;;;;4990775;28;20041;-69
2023/11/24 11:03:16;;;;;;;1999.90;999.90;;;6.70;99.90;;;;;;5023357;28;20062;-71
2023/11/24 11:05:54;;;;;;;1999.90;999.90;;;6.90;99.90;;;;;;4995017;28;20027;-71
2023/11/24 11:08:34;;;;;;;1999.90;999.90;;;7.10;99.90;;;;;;4993908;28;20455;-71
2023/11/24 11:11:06;;;;;;;1999.90;999.90;;;7.20;99.90;;;;;;4995159;28;20374;-71
2023/11/24 11:13:37;;;;;;;1999.90;999.90;;;7.20;99.90;;;;;;4977207;28;20033;-71
2023/11/24 11:16:04;;;;;;;1999.90;999.90;;;7.30;99.90;;;;;;5000082;28;20026;-72
2023/11/24 11:18:33;;;;;;;1999.90;999.90;;;7.10;99.90;;;;;;4996089;28;20043;-71
2023/11/24 11:21:08;;;;;;;1999.90;999.90;;;6.80;99.90;;;;;;4997443;28;20026;-70
2023/11/24 11:23:36;;;;;;;1999.90;999.90;;;6.50;99.90;;;;;;4994012;28;20076;-70
2023/11/24 11:26:02;;;;;;;1999.90;999.90;;;6.40;99.90;;;;;;4976118;28;20046;-70
2023/11/24 11:28:36;;;;;;;1999.90;999.90;;;6.40;99.90;;;;;;5006198;28;20033;-69
2023/11/24 11:31:35;;;;;;;1999.90;999.90;;;6.40;99.90;;;;;;4995084;28;20026;-70
2023/11/24 11:34:12;;;;;;;1999.90;999.90;;;6.20;99.90;;;;;;5001505;28;20010;-70
2023/11/24 11:36:50;;;;;;;1999.90;999.90;;;6.10;99.90;;;;;;4995009;28;20321;-70
2023/11/24 11:39:27;;;;;;;1999.90;999.90;;;6.30;99.90;;;;;;4997346;28;20434;-71
2023/11/24 11:41:55;;;;;;;1999.90;999.90;;;6.20;99.90;;;;;;4993658;28;20122;-70
2023/11/24 11:44:33;;;;;;;1999.90;999.90;;;6.40;99.90;;;;;;4994112;28;20019;-71
2023/11/24 11:47:26;;;;;;;1999.90;999.90;;;6.70;99.90;;;;;;4994722;28;20027;-70
2023/11/24 11:49:56;;;;;;;1999.90;999.90;;;6.80;99.90;;;;;;4998466;28;20036;-71
2023/11/24 11:52:27;;;;;;;1999.90;999.90;;;6.80;99.90;;;;;;4991525;28;20030;-70
2023/11/24 11:54:55;;;;;;;1999.90;999.90;;;6.90;99.90;;;;;;4976689;28;20030;-71
2023/11/24 11:57:22;;;;;;;1999.90;999.90;;;7.00;99.90;;;;;;4972212;28;20072;-71
2023/11/24 11:59:49;;;;;;;1999.90;999.90;;;6.90;99.90;;;;;;4990613;28;20041;-71
2023/11/24 12:02:16;;;;;;;1999.90;999.90;;;6.90;99.90;;;;;;4982398;28;20030;-70
2023/11/24 12:04:45;;;;;;;1999.90;999.90;;;6.90;99.90;;;;;;4991281;28;20478;-71
2023/11/24 12:07:15;;;;;;;1999.90;999.90;;;6.80;99.90;;;;;;4990062;28;20034;-69
2023/11/24 12:09:41;;;;;;;1999.90;999.90;;;6.90;99.90;;;;;;4989368;28;20058;-70
2023/11/24 12:12:11;;;;;;;1999.90;999.90;;;7.20;99.90;;;;;;4991117;28;20042;-69
2023/11/24 12:14:41;;;;;;;1999.90;999.90;;;7.30;99.90;;;;;;4992328;28;20018;-70
2023/11/24 12:17:08;;;;;;;1999.90;999.90;;;7.10;99.90;;;;;;4990798;28;20076;-73